Time;durP1;ratioP1;P1;durP2;ratioP2;P2;SDS_P1;SDS_P2;PMS_P1;PMS_P2;Temp;Humidity;BMP_temperature;BMP_pressure;BME280_temperature;BME280_humidity;BME280_pressure;Samples;Min_cycle;Max_cycle;Signal;HPM_P1;HPM_P2
2022/11/05 00:10:35;;;;;;;19.53;2.67;;;;;;;11.16;100.00;100033.19;5050735;28;20474;-54
2022/11/05 00:18:32;;;;;;;1.57;1.10;;;;;;;11.19;100.00;100038.41;5050462;28;20862;-54
2022/11/05 00:20:59;;;;;;;1.00;1.00;;;;;;;11.39;100.00;100041.25;5050528;28;20450;-54
2022/11/05 00:26:11;;;;;;;2.40;1.57;;;;;;;11.30;100.00;100036.22;5050550;28;20463;-54
2022/11/05 00:28:42;;;;;;;1.30;1.20;;;;;;;11.24;100.00;100042.66;5050560;28;20458;-54
2022/11/05 00:31:11;;;;;;;4.17;2.30;;;;;;;11.19;100.00;100043.72;5039837;28;20529;-54
2022/11/05 00:33:39;;;;;;;9.73;1.43;;;;;;;11.27;100.00;100036.34;5050774;28;20454;-54
2022/11/05 00:36:07;;;;;;;1.20;1.17;;;;;;;11.25;100.00;100040.88;5050438;28;20475;-54
2022/11/05 00:38:35;;;;;;;2.33;1.63;;;;;;;11.30;100.00;100046.88;5050584;28;20557;-54
2022/11/05 00:41:01;;;;;;;3.03;2.07;;;;;;;11.30;100.00;100046.88;5049737;28;20459;-54
2022/11/05 00:46:12;;;;;;;1.80;1.70;;;;;;;11.48;100.00;100058.66;5050094;28;20946;-54
2022/11/05 00:51:24;;;;;;;6.30;2.23;;;;;;;11.36;100.00;100064.41;5038728;28;20973;-54
2022/11/05 00:53:50;;;;;;;1.50;1.40;;;;;;;11.22;100.00;100059.56;5046962;28;20871;-53
2022/11/05 00:56:17;;;;;;;1.23;1.13;;;;;;;11.25;100.00;100071.00;5050055;28;20570;-54
2022/11/05 00:58:44;;;;;;;2.50;2.40;;;;;;;11.09;100.00;100066.22;5049838;28;20464;-54
2022/11/05 01:01:10;;;;;;;2.60;2.17;;;;;;;11.29;100.00;100069.09;5038659;28;20827;-54
2022/11/05 01:03:38;;;;;;;2.33;2.23;;;;;;;11.13;100.00;100070.56;5049889;28;20529;-54
2022/11/05 01:06:08;;;;;;;1.40;1.30;;;;;;;11.12;100.00;100076.78;5049798;28;20475;-54
2022/11/05 01:08:35;;;;;;;2.77;1.50;;;;;;;11.21;100.00;100079.13;5049471;28;20524;-56
2022/11/05 01:11:09;;;;;;;5.93;2.27;;;;;;;11.02;100.00;100075.34;5036781;28;20454;-54
2022/11/05 01:13:36;;;;;;;1.50;1.40;;;;;;;10.98;100.00;100083.44;5032315;28;20505;-53
2022/11/05 01:16:06;;;;;;;1.60;1.50;;;;;;;10.97;100.00;100089.69;5049759;28;20490;-53
2022/11/05 01:18:33;;;;;;;1.50;1.40;;;;;;;10.97;100.00;100081.72;5047526;28;20455;-55
2022/11/05 01:20:59;;;;;;;1.13;1.03;;;;;;;11.04;100.00;100086.81;5038101;28;20451;-54
2022/11/05 01:23:27;;;;;;;2.10;1.97;;;;;;;11.00;100.00;100090.50;5049216;28;20494;-55
2022/11/05 01:25:57;;;;;;;2.93;2.57;;;;;;;10.96;100.00;100089.72;5049319;28;21053;-54
2022/11/05 01:28:23;;;;;;;5.43;2.23;;;;;;;10.91;100.00;100087.22;5049087;28;20454;-53
2022/11/05 01:30:55;;;;;;;3.70;2.33;;;;;;;10.96;100.00;100092.38;5039528;28;20461;-54
2022/11/05 01:33:21;;;;;;;2.10;1.43;;;;;;;10.97;100.00;100099.47;5046649;28;20458;-53
2022/11/05 01:35:50;;;;;;;1.20;1.10;;;;;;;10.92;100.00;100099.59;5020368;28;20992;-54
2022/11/05 01:38:17;;;;;;;2.47;2.27;;;;;;;10.95;100.00;100099.47;5042669;28;20455;-54
2022/11/05 01:40:44;;;;;;;3.37;2.60;;;;;;;10.95;100.00;100110.13;5040863;28;20931;-54
2022/11/05 01:43:15;;;;;;;1.80;1.70;;;;;;;10.95;100.00;100112.78;5049120;28;20490;-55
2022/11/05 01:45:44;;;;;;;2.70;2.33;;;;;;;11.03;100.00;100109.00;5049218;28;20504;-53
2022/11/05 01:48:21;;;;;;;2.17;1.90;;;;;;;10.98;100.00;100107.38;5048761;28;20811;-54
2022/11/05 01:50:54;;;;;;;1.37;1.27;;;;;;;10.94;100.00;100113.72;5035547;28;20451;-54
2022/11/05 01:53:24;;;;;;;2.00;1.90;;;;;;;10.98;100.00;100109.19;5049171;28;20442;-54
2022/11/05 01:55:59;;;;;;;9.87;5.73;;;;;;;10.99;100.00;100113.56;5048809;28;21040;-54
2022/11/05 01:58:31;;;;;;;3.00;2.47;;;;;;;10.99;100.00;100116.22;5048750;28;20508;-54
2022/11/05 02:00:58;;;;;;;7.80;2.60;;;;;;;11.07;100.00;100114.16;5035387;28;20450;-54
2022/11/05 02:03:25;;;;;;;5.27;2.97;;;;;;;11.02;100.00;100124.09;5049034;28;20568;-54
2022/11/05 02:05:55;;;;;;;16.23;3.70;;;;;;;10.96;100.00;100121.63;5031176;28;20475;-54
2022/11/05 02:08:42;;;;;;;2.70;2.60;;;;;;;11.02;100.00;100125.91;5048655;28;20459;-54
2022/11/05 02:11:12;;;;;;;3.80;2.80;;;;;;;11.21;100.00;100137.66;5036493;28;20939;-54
2022/11/05 02:13:39;;;;;;;1.30;1.20;;;;;;;11.16;100.00;100136.94;5049163;28;20447;-54
2022/11/05 02:16:11;;;;;;;3.00;2.67;;;;;;;11.37;100.00;100138.88;5048749;28;20488;-55
2022/11/05 02:18:57;;;;;;;2.67;1.60;;;;;;;11.36;100.00;100136.25;5046298;28;20551;-53
2022/11/05 02:21:56;;;;;;;4.23;2.10;;;;;;;11.20;100.00;100149.22;5040649;28;20455;-54
2022/11/05 02:24:55;;;;;;;1.47;1.37;;;;;;;11.22;100.00;100144.72;5048255;28;20544;-53
2022/11/05 02:27:36;;;;;;;1.90;0.93;;;;;;;11.27;100.00;100148.97;5048428;28;20479;-54
2022/11/05 02:30:03;;;;;;;4.93;1.80;;;;;;;10.93;100.00;100135.91;5035077;28;20504;-57
2022/11/05 02:32:57;;;;;;;1.03;0.63;;;;;;;10.64;100.00;100149.25;5046277;28;20516;-53
2022/11/05 02:36:01;;;;;;;2.57;1.80;;;;;;;10.79;100.00;100153.22;5036029;28;20482;-56
2022/11/05 02:38:34;;;;;;;2.20;1.17;;;;;;;10.82;100.00;100155.78;5042047;28;20455;-56
2022/11/05 02:41:29;;;;;;;1.00;0.90;;;;;;;10.71;100.00;100152.59;5042301;28;20454;-54
2022/11/05 02:44:11;;;;;;;5.20;1.57;;;;;;;10.62;100.00;100159.06;5044799;28;20486;-56
2022/11/05 02:46:50;;;;;;;8.37;1.70;;;;;;;10.66;100.00;100155.38;5041883;28;20484;-57
2022/11/05 02:49:25;;;;;;;0.80;0.60;;;;;;;10.50;100.00;100162.09;5042985;28;20512;-54
2022/11/05 02:52:00;;;;;;;2.10;1.23;;;;;;;10.68;100.00;100162.41;5048543;28;20504;-53
2022/11/05 02:54:43;;;;;;;0.57;0.50;;;;;;;10.75;100.00;100159.56;5044387;28;20961;-53
2022/11/05 02:57:09;;;;;;;1.50;0.83;;;;;;;10.76;100.00;100164.81;5041175;28;20478;-56
2022/11/05 02:59:35;;;;;;;1.23;1.13;;;;;;;10.84;100.00;100168.13;5048385;28;20464;-54
2022/11/05 03:02:02;;;;;;;1.53;0.60;;;;;;;10.71;100.00;100168.56;5048641;28;20458;-54
2022/11/05 03:04:30;;;;;;;2.10;1.17;;;;;;;10.62;100.00;100175.03;5041825;28;20487;-54
2022/11/05 03:07:19;;;;;;;1.63;0.80;;;;;;;10.64;100.00;100167.88;5048006;28;21003;-54
2022/11/05 03:10:04;;;;;;;0.80;0.80;;;;;;;10.70;100.00;100177.47;5041517;28;20450;-54
2022/11/05 03:12:49;;;;;;;0.70;0.50;;;;;;;10.51;100.00;100172.69;5034026;28;20519;-54
2022/11/05 03:15:30;;;;;;;1.50;1.40;;;;;;;10.70;100.00;100174.81;5038473;28;20478;-54
2022/11/05 03:18:12;;;;;;;0.73;0.70;;;;;;;10.56;100.00;100183.19;5052308;28;20928;-55
2022/11/05 03:20:57;;;;;;;3.90;0.80;;;;;;;10.57;100.00;100184.94;5051933;28;20899;-55
2022/11/05 03:23:44;;;;;;;1.33;1.23;;;;;;;10.51;100.00;100182.44;5050321;28;20857;-55
2022/11/05 03:26:22;;;;;;;1.03;1.03;;;;;;;10.43;100.00;100188.00;5049381;28;20462;-55
2022/11/05 03:28:55;;;;;;;1.40;1.33;;;;;;;10.38;100.00;100187.25;5038785;28;20450;-55
2022/11/05 03:31:23;;;;;;;0.70;0.50;;;;;;;10.63;100.00;100190.91;5049161;28;20826;-55
2022/11/05 03:33:53;;;;;;;1.00;1.00;;;;;;;10.59;100.00;100196.38;5043426;28;20448;-55
2022/11/05 03:36:27;;;;;;;0.70;0.67;;;;;;;10.58;100.00;100205.28;5046853;28;20520;-55
2022/11/05 03:38:57;;;;;;;1.13;0.93;;;;;;;10.63;100.00;100206.00;5051513;28;20819;-55
2022/11/05 03:41:24;;;;;;;0.60;0.60;;;;;;;10.72;100.00;100208.38;5051649;28;20455;-55
2022/11/05 03:43:56;;;;;;;1.53;1.03;;;;;;;10.39;100.00;100204.94;5040742;28;20589;-55
2022/11/05 03:46:31;;;;;;;1.40;1.30;;;;;;;10.33;100.00;100215.75;5049591;28;20478;-55
2022/11/05 03:49:01;;;;;;;1.33;1.00;;;;;;;10.32;100.00;100219.31;5051369;28;20500;-55
2022/11/05 03:51:41;;;;;;;0.60;0.60;;;;;;;10.30;100.00;100223.81;5038106;28;20529;-55
2022/11/05 03:54:08;;;;;;;2.20;1.13;;;;;;;10.26;100.00;100227.44;5050366;28;20443;-55
2022/11/05 03:56:56;;;;;;;16.97;2.20;;;;;;;10.23;100.00;100224.88;5051334;28;20520;-55
2022/11/05 03:59:24;;;;;;;0.50;0.50;;;;;;;10.08;100.00;100237.66;5051156;28;20835;-55
2022/11/05 04:01:50;;;;;;;0.80;0.70;;;;;;;9.95;100.00;100240.69;5021194;28;20460;-54
2022/11/05 04:04:17;;;;;;;0.37;0.33;;;;;;;9.93;100.00;100234.53;5048863;28;20491;-55
2022/11/05 04:15:18;;;;;;;1.53;1.43;;;;;;;9.98;100.00;100251.22;4989066;28;20488;-55
2022/11/05 04:17:44;;;;;;;1.17;1.00;;;;;;;10.04;100.00;100248.41;5021387;28;20489;-55
2022/11/05 04:25:50;;;;;;;0.60;0.60;;;;;;;10.04;100.00;100251.06;5045232;28;20878;-55
2022/11/05 04:28:16;;;;;;;0.60;0.40;;;;;;;10.09;100.00;100250.00;5048251;28;20451;-55
2022/11/05 04:30:43;;;;;;;0.70;0.70;;;;;;;10.00;100.00;100252.91;5039425;28;20533;-55
2022/11/05 04:33:12;;;;;;;1.17;0.80;;;;;;;9.92;100.00;100260.22;5047506;28;20454;-55
2022/11/05 04:35:45;;;;;;;0.70;0.53;;;;;;;9.91;100.00;100269.09;5050400;28;20443;-55
2022/11/05 04:38:17;;;;;;;0.50;0.37;;;;;;;9.87;100.00;100264.78;5046768;28;20513;-55
2022/11/05 04:40:44;;;;;;;0.80;0.80;;;;;;;9.90;100.00;100267.34;5041163;28;20966;-55
2022/11/05 04:43:13;;;;;;;0.60;0.60;;;;;;;9.87;100.00;100263.88;5050361;28;20865;-55
2022/11/05 04:45:41;;;;;;;0.57;0.50;;;;;;;9.81;100.00;100270.25;5050338;28;20490;-54
2022/11/05 04:48:07;;;;;;;1.10;0.67;;;;;;;9.83;100.00;100270.19;5049435;28;20451;-55
2022/11/05 04:50:34;;;;;;;2.20;1.73;;;;;;;9.81;100.00;100272.91;5038816;28;20463;-55
2022/11/05 04:53:00;;;;;;;1.20;1.10;;;;;;;9.75;100.00;100270.41;5048291;28;20501;-55
2022/11/05 04:55:27;;;;;;;2.23;1.10;;;;;;;9.98;100.00;100280.41;5050038;28;20451;-55
2022/11/05 04:57:54;;;;;;;3.90;1.10;;;;;;;9.82;100.00;100274.63;5049916;28;20455;-54
2022/11/05 05:00:22;;;;;;;1.10;1.00;;;;;;;9.79;100.00;100280.03;5038170;28;20455;-55
2022/11/05 05:02:49;;;;;;;0.50;0.50;;;;;;;9.86;100.00;100283.38;5045246;28;20454;-55
2022/11/05 05:05:15;;;;;;;1.43;0.43;;;;;;;9.92;100.00;100280.59;5045273;28;20541;-55
2022/11/05 05:07:42;;;;;;;1.13;0.80;;;;;;;9.89;100.00;100286.00;5044998;28;21009;-53
2022/11/05 05:10:09;;;;;;;0.70;0.70;;;;;;;9.87;100.00;100283.38;5041664;28;20478;-55
2022/11/05 05:12:36;;;;;;;1.00;0.70;;;;;;;9.94;100.00;100286.72;5039394;28;20452;-55
2022/11/05 05:15:02;;;;;;;3.90;0.90;;;;;;;9.98;100.00;100285.72;5042177;28;20997;-55
2022/11/05 05:17:29;;;;;;;0.73;0.73;;;;;;;10.05;100.00;100287.31;5035825;28;20479;-55
2022/11/05 05:22:40;;;;;;;5.27;0.50;;;;;;;9.99;100.00;100296.31;5037220;28;20455;-55
2022/11/05 05:25:07;;;;;;;1.10;1.00;;;;;;;10.03;100.00;100305.97;5049088;28;20490;-55
2022/11/05 05:27:33;;;;;;;1.37;0.77;;;;;;;10.05;100.00;100308.56;5043634;28;20464;-55
2022/11/05 05:29:59;;;;;;;0.60;0.40;;;;;;;10.02;100.00;100308.66;5043251;28;21011;-55
2022/11/05 05:32:26;;;;;;;0.70;0.67;;;;;;;9.96;100.00;100304.34;5046261;28;20460;-55
2022/11/05 05:34:52;;;;;;;1.60;0.73;;;;;;;10.03;100.00;100308.63;5045530;28;20956;-55
2022/11/05 05:37:19;;;;;;;1.33;1.20;;;;;;;10.07;100.00;100312.06;5048484;28;20467;-55
2022/11/05 05:39:46;;;;;;;2.00;1.13;;;;;;;10.05;100.00;100309.44;5026301;28;20448;-55
2022/11/05 05:42:13;;;;;;;9.23;1.30;;;;;;;10.07;100.00;100309.41;5046823;28;20531;-55
2022/11/05 05:44:39;;;;;;;1.50;1.40;;;;;;;10.07;100.00;100315.56;5044379;28;20513;-56
2022/11/05 05:47:06;;;;;;;1.20;1.00;;;;;;;10.12;100.00;100311.91;5031521;28;20475;-55
2022/11/05 05:49:32;;;;;;;2.30;0.87;;;;;;;10.08;100.00;100316.44;5043118;28;20455;-55
2022/11/05 05:51:59;;;;;;;1.23;1.13;;;;;;;10.03;100.00;100319.25;5040034;28;20444;-55
2022/11/05 05:54:25;;;;;;;0.80;0.80;;;;;;;9.98;100.00;100315.81;5048141;28;20439;-55
2022/11/05 05:56:58;;;;;;;0.83;0.77;;;;;;;9.92;100.00;100321.28;5047168;28;20459;-56
2022/11/05 05:59:25;;;;;;;1.20;1.10;;;;;;;9.87;100.00;100330.25;5020486;28;20797;-55
2022/11/05 06:01:51;;;;;;;1.70;1.23;;;;;;;9.84;100.00;100333.88;5039284;28;20482;-56
2022/11/05 06:04:18;;;;;;;0.87;0.87;;;;;;;9.76;100.00;100335.88;5036447;28;20489;-56
2022/11/05 06:06:45;;;;;;;4.33;0.90;;;;;;;9.70;100.00;100344.81;5035135;28;20856;-55
2022/11/05 06:09:13;;;;;;;2.63;0.77;;;;;;;9.66;100.00;100348.47;5047455;28;20537;-55
2022/11/05 06:11:40;;;;;;;1.93;0.87;;;;;;;9.64;100.00;100347.66;5048378;28;20455;-56
2022/11/05 06:14:10;;;;;;;2.10;1.63;;;;;;;9.62;100.00;100359.22;5043644;28;20454;-56
2022/11/05 06:16:37;;;;;;;1.50;1.40;;;;;;;9.38;100.00;100345.59;5041086;28;20490;-55
2022/11/05 06:19:05;;;;;;;2.40;2.20;;;;;;;9.26;100.00;100352.94;5035866;28;20456;-55
2022/11/05 06:21:32;;;;;;;1.70;1.60;;;;;;;9.31;100.00;100359.00;5044875;28;21006;-56
2022/11/05 06:24:00;;;;;;;2.30;2.10;;;;;;;9.24;100.00;100355.63;5024552;28;20538;-56
2022/11/05 06:26:27;;;;;;;1.37;1.27;;;;;;;9.11;100.00;100363.00;5048134;28;21126;-56
2022/11/05 06:28:53;;;;;;;2.00;1.90;;;;;;;8.99;100.00;100368.53;5044414;28;20455;-56
2022/11/05 06:31:20;;;;;;;1.80;1.70;;;;;;;8.88;100.00;100375.84;5040129;28;20463;-56
2022/11/05 06:33:46;;;;;;;2.20;2.10;;;;;;;8.94;100.00;100385.47;5048310;28;20463;-56
2022/11/05 06:36:17;;;;;;;21.23;2.97;;;;;;;8.76;100.00;100381.38;5047854;28;20501;-56
2022/11/05 06:38:43;;;;;;;2.03;1.93;;;;;;;8.66;100.00;100382.50;5031712;28;20534;-55
2022/11/05 06:41:10;;;;;;;2.60;2.50;;;;;;;8.61;100.00;100387.84;5046337;28;20462;-55
2022/11/05 06:43:37;;;;;;;1.73;1.63;;;;;;;8.55;100.00;100386.22;5052330;28;20463;-57
2022/11/05 06:46:04;;;;;;;1.40;1.30;;;;;;;8.51;100.00;100397.78;5051684;28;20494;-57
2022/11/05 06:48:31;;;;;;;1.63;1.53;;;;;;;8.46;100.00;100396.97;5048518;28;20512;-57
2022/11/05 06:50:57;;;;;;;2.10;1.70;;;;;;;8.45;100.00;100400.50;5052088;28;20516;-57
2022/11/05 06:53:24;;;;;;;1.07;0.90;;;;;;;8.33;100.00;100406.88;5052191;28;20512;-57
2022/11/05 06:55:50;;;;;;;6.23;1.67;;;;;;;8.37;100.00;100410.41;5048578;28;20868;-57
2022/11/05 06:58:17;;;;;;;3.97;1.20;;;;;;;8.44;100.00;100409.38;5045144;28;20450;-57
2022/11/05 07:00:43;;;;;;;1.37;1.27;;;;;;;8.40;100.00;100422.69;5041535;28;20523;-56
2022/11/05 07:03:11;;;;;;;1.80;1.70;;;;;;;8.35;100.00;100432.47;5043093;28;20452;-56
2022/11/05 07:05:43;;;;;;;2.37;1.50;;;;;;;8.26;100.00;100433.50;5043971;28;20544;-54
2022/11/05 07:08:10;;;;;;;10.30;1.30;;;;;;;8.33;100.00;100441.28;5050201;28;20832;-54
2022/11/05 07:10:36;;;;;;;3.23;2.30;;;;;;;8.35;100.00;100454.53;5048277;28;20462;-54
2022/11/05 07:13:03;;;;;;;1.97;1.47;;;;;;;8.35;100.00;100451.91;5037049;28;20448;-54
2022/11/05 07:15:34;;;;;;;1.60;1.50;;;;;;;8.38;100.00;100449.22;5039320;28;20445;-54
2022/11/05 07:18:01;;;;;;;4.53;2.60;;;;;;;8.64;100.00;100453.19;5046169;28;20451;-54
2022/11/05 07:20:28;;;;;;;3.17;2.97;;;;;;;8.56;100.00;100451.53;5051315;28;20905;-56
2022/11/05 07:23:07;;;;;;;2.57;1.07;;;;;;;8.48;100.00;100463.16;5051524;28;20832;-55
2022/11/05 07:25:34;;;;;;;2.20;2.00;;;;;;;8.38;100.00;100462.47;5046533;28;20528;-55
2022/11/05 07:28:01;;;;;;;3.93;2.33;;;;;;;8.56;100.00;100461.25;5051051;28;20516;-55
2022/11/05 07:30:27;;;;;;;10.00;1.53;;;;;;;8.59;100.00;100470.03;5041661;28;20458;-55
2022/11/05 07:32:54;;;;;;;1.53;1.43;;;;;;;8.79;100.00;100466.16;5025392;28;20457;-55
2022/11/05 07:35:21;;;;;;;2.50;1.10;;;;;;;8.92;100.00;100461.50;5050298;28;20508;-55
2022/11/05 07:37:49;;;;;;;1.00;0.97;;;;;;;9.08;100.00;100474.44;5051630;28;20474;-55
2022/11/05 07:40:18;;;;;;;3.87;1.30;;;;;;;9.10;100.00;100483.22;5047759;28;20458;-55
2022/11/05 07:42:49;;;;;;;1.60;1.50;;;;;;;9.11;100.00;100481.44;5049258;28;20454;-55
2022/11/05 07:45:15;;;;;;;5.93;1.33;;;;;;;9.53;100.00;100486.78;5048368;28;20544;-55
2022/11/05 07:47:47;;;;;;;1.87;1.77;;;;;;;9.32;100.00;100485.44;5046861;28;20478;-55
2022/11/05 07:50:15;;;;;;;1.30;1.20;;;;;;;9.28;100.00;100486.41;5040972;28;20508;-55
2022/11/05 07:52:41;;;;;;;1.33;1.23;;;;;;;9.34;100.00;100486.31;5046991;28;20880;-55
2022/11/05 07:55:09;;;;;;;1.30;1.20;;;;;;;9.30;100.00;100484.59;5049172;28;20534;-55
2022/11/05 07:57:43;;;;;;;4.37;2.20;;;;;;;9.57;100.00;100478.72;5048601;28;20830;-55
2022/11/05 08:00:13;;;;;;;2.10;2.00;;;;;;;9.55;100.00;100488.50;5051701;28;20458;-55
2022/11/05 08:02:40;;;;;;;1.33;1.23;;;;;;;9.63;100.00;100493.66;5051394;28;20482;-55
2022/11/05 08:05:08;;;;;;;0.97;0.97;;;;;;;9.75;100.00;100493.38;5033660;28;20548;-55
2022/11/05 08:07:35;;;;;;;2.37;2.20;;;;;;;9.88;100.00;100496.66;5050948;28;20895;-55
2022/11/05 08:10:03;;;;;;;2.43;2.33;;;;;;;10.35;100.00;100500.88;5051687;28;20879;-55
2022/11/05 08:12:30;;;;;;;1.00;1.00;;;;;;;9.99;100.00;100500.78;5051357;28;20466;-55
2022/11/05 08:14:56;;;;;;;1.87;1.23;;;;;;;9.97;100.00;100491.97;5051488;28;20477;-55
2022/11/05 08:17:23;;;;;;;1.13;1.03;;;;;;;10.17;100.00;100486.22;5050978;28;20479;-55
2022/11/05 08:19:49;;;;;;;1.23;1.17;;;;;;;10.19;100.00;100494.16;5051025;28;20966;-55
2022/11/05 08:22:16;;;;;;;1.40;1.30;;;;;;;10.17;100.00;100496.84;5037632;28;20437;-55
2022/11/05 08:24:42;;;;;;;1.80;1.70;;;;;;;10.41;100.00;100502.50;5043829;28;20451;-55
2022/11/05 08:27:08;;;;;;;2.40;1.73;;;;;;;10.22;100.00;100505.59;5047095;28;20520;-56
2022/11/05 08:29:35;;;;;;;2.80;2.10;;;;;;;10.41;100.00;100503.38;5049642;28;20458;-55
2022/11/05 08:32:01;;;;;;;2.20;2.00;;;;;;;10.38;100.00;100511.41;5042212;28;20438;-55
2022/11/05 08:34:28;;;;;;;3.27;1.23;;;;;;;10.45;100.00;100507.72;5039030;28;20451;-55
2022/11/05 08:36:54;;;;;;;1.30;1.20;;;;;;;10.55;100.00;100509.25;5033877;28;20473;-55
2022/11/05 08:39:20;;;;;;;1.67;1.57;;;;;;;10.54;100.00;100518.09;5050023;28;20458;-55
2022/11/05 08:41:47;;;;;;;1.23;1.13;;;;;;;10.79;100.00;100526.34;5040089;28;20459;-55
2022/11/05 08:44:18;;;;;;;3.03;2.20;;;;;;;10.95;100.00;100522.34;5038122;28;20812;-55
2022/11/05 08:46:44;;;;;;;1.83;1.60;;;;;;;11.34;100.00;100518.66;5050390;28;20494;-55
2022/11/05 08:49:10;;;;;;;1.73;1.63;;;;;;;10.85;100.00;100530.63;5050381;28;20451;-55
2022/11/05 08:51:37;;;;;;;1.30;1.20;;;;;;;11.05;100.00;100530.09;5050563;28;20429;-55
2022/11/05 08:54:04;;;;;;;2.93;1.73;;;;;;;10.97;100.00;100532.97;5050096;28;20450;-55
2022/11/05 08:56:30;;;;;;;4.17;2.13;;;;;;;10.94;100.00;100531.25;5050400;28;20448;-55
2022/11/05 08:58:56;;;;;;;1.93;1.70;;;;;;;10.96;100.00;100532.09;5036836;28;20439;-55
2022/11/05 09:01:23;;;;;;;2.43;2.23;;;;;;;10.97;100.00;100533.84;5050262;28;20450;-55
2022/11/05 09:03:50;;;;;;;1.27;0.90;;;;;;;11.08;100.00;100533.53;5048376;28;20482;-55
2022/11/05 09:06:19;;;;;;;0.97;0.83;;;;;;;11.49;100.00;100532.41;5038307;28;20499;-56
2022/11/05 09:08:45;;;;;;;1.20;1.10;;;;;;;11.57;100.00;100535.72;5050343;28;20461;-55
2022/11/05 09:11:12;;;;;;;1.17;1.17;;;;;;;11.72;100.00;100530.88;5050366;28;20504;-55
2022/11/05 09:13:38;;;;;;;1.17;1.17;;;;;;;11.68;100.00;100535.44;5050282;28;20459;-56
2022/11/05 09:16:05;;;;;;;3.37;1.10;;;;;;;11.48;100.00;100532.44;5024204;28;21066;-56
2022/11/05 09:18:32;;;;;;;1.10;1.00;;;;;;;11.79;100.00;100536.03;5024450;28;20452;-55
2022/11/05 09:20:58;;;;;;;3.10;1.70;;;;;;;11.79;100.00;100536.03;5038809;28;20525;-56
2022/11/05 09:23:25;;;;;;;4.93;0.80;;;;;;;11.71;100.00;100532.66;5037094;28;20466;-55
2022/11/05 09:25:51;;;;;;;0.60;0.50;;;;;;;11.72;100.00;100537.06;5044887;28;20490;-55
2022/11/05 09:28:19;;;;;;;0.57;0.57;;;;;;;11.74;100.00;100543.22;5049860;28;20589;-55
2022/11/05 09:30:51;;;;;;;1.53;0.80;;;;;;;11.72;100.00;100541.53;5040691;28;21421;-56
2022/11/05 09:33:20;;;;;;;0.67;0.67;;;;;;;12.00;100.00;100541.63;5042237;28;20451;-56
2022/11/05 09:35:47;;;;;;;0.80;0.70;;;;;;;11.87;100.00;100541.09;5048173;28;20475;-55
2022/11/05 09:38:14;;;;;;;6.77;1.27;;;;;;;12.09;99.28;100542.22;5049605;28;20485;-56
2022/11/05 09:41:01;;;;;;;0.93;0.83;;;;;;;12.06;100.00;100560.06;5049617;28;20454;-56
2022/11/05 09:43:46;;;;;;;6.13;2.90;;;;;;;12.45;98.82;100558.81;5036795;28;20437;-56
2022/11/05 09:46:12;;;;;;;1.50;1.40;;;;;;;12.35;98.92;100562.72;5049504;28;20498;-56
2022/11/05 09:48:41;;;;;;;1.03;0.60;;;;;;;12.33;99.42;100553.88;5049463;28;20866;-56
2022/11/05 09:51:13;;;;;;;1.47;0.97;;;;;;;12.42;98.74;100561.59;5049337;28;20451;-56
2022/11/05 09:53:48;;;;;;;1.10;0.60;;;;;;;12.67;96.49;100558.16;5048714;28;20451;-55
2022/11/05 09:56:22;;;;;;;1.03;0.80;;;;;;;12.55;96.60;100556.75;5045269;28;20463;-56
2022/11/05 09:59:20;;;;;;;4.57;1.07;;;;;;;12.49;97.38;100564.09;5042803;28;20454;-55
2022/11/05 10:01:47;;;;;;;0.80;0.80;;;;;;;12.59;96.27;100563.72;5029930;28;20538;-55
2022/11/05 10:04:21;;;;;;;0.77;0.67;;;;;;;12.33;96.55;100558.34;5039801;28;20457;-55
2022/11/05 10:06:51;;;;;;;4.83;0.80;;;;;;;12.54;97.16;100563.00;5041547;28;20497;-55
2022/11/05 10:09:25;;;;;;;0.70;0.70;;;;;;;12.58;95.58;100574.44;5035673;28;20459;-55
2022/11/05 10:12:17;;;;;;;1.30;0.83;;;;;;;12.36;94.79;100582.25;5034695;28;20450;-55
2022/11/05 10:14:55;;;;;;;0.70;0.70;;;;;;;12.41;96.24;100583.84;5019923;28;20463;-55
2022/11/05 10:17:25;;;;;;;2.10;1.70;;;;;;;12.71;96.04;100581.13;5045196;28;20544;-55
2022/11/05 10:20:23;;;;;;;3.10;1.80;;;;;;;12.31;97.11;100584.19;5046357;28;20456;-55
2022/11/05 10:23:00;;;;;;;4.33;1.20;;;;;;;12.71;96.42;100582.00;4996037;28;20477;-55
2022/11/05 10:25:32;;;;;;;0.77;0.77;;;;;;;13.02;95.54;100576.53;5045175;28;20482;-55
2022/11/05 10:27:59;;;;;;;4.07;2.17;;;;;;;12.96;95.23;100579.38;5048801;28;20447;-55
2022/11/05 10:30:25;;;;;;;1.77;1.50;;;;;;;12.76;95.93;100579.19;5036419;28;20458;-55
2022/11/05 10:32:55;;;;;;;3.17;1.30;;;;;;;12.94;96.27;100581.25;5031863;28;20986;-55
2022/11/05 10:35:25;;;;;;;1.80;0.87;;;;;;;12.57;97.95;100578.03;5044840;28;20455;-54
2022/11/05 10:37:54;;;;;;;4.80;1.83;;;;;;;12.82;96.01;100591.44;5035838;28;20427;-55
2022/11/05 10:40:41;;;;;;;1.37;1.27;;;;;;;12.86;97.91;100590.41;5048138;28;20450;-54
2022/11/05 10:43:23;;;;;;;0.70;0.63;;;;;;;12.65;97.74;100586.66;5048568;28;20458;-54
2022/11/05 10:46:01;;;;;;;2.60;0.80;;;;;;;12.78;97.82;100592.47;5048489;28;20525;-55
2022/11/05 10:48:44;;;;;;;1.57;0.90;;;;;;;12.69;96.92;100594.50;5039824;28;20485;-55
2022/11/05 10:51:12;;;;;;;0.97;0.97;;;;;;;12.65;97.42;100589.34;5041310;28;20455;-55
2022/11/05 10:53:48;;;;;;;1.30;1.20;;;;;;;12.61;97.11;100593.91;5043554;28;20513;-55
2022/11/05 10:56:32;;;;;;;4.20;1.97;;;;;;;12.49;97.86;100591.63;5048382;28;20840;-55
2022/11/05 10:59:01;;;;;;;1.30;1.20;;;;;;;12.46;98.47;100581.91;5048186;28;20462;-55
2022/11/05 11:01:34;;;;;;;2.43;1.30;;;;;;;12.44;97.87;100581.09;5039799;28;21099;-55
2022/11/05 11:04:13;;;;;;;0.93;0.80;;;;;;;12.66;96.88;100581.28;5031815;28;20828;-55
2022/11/05 11:06:47;;;;;;;0.50;0.50;;;;;;;12.67;97.75;100583.03;5045509;28;20490;-54
2022/11/05 11:09:20;;;;;;;1.90;1.80;;;;;;;12.46;96.94;100587.22;5036928;28;20462;-55
2022/11/05 11:11:54;;;;;;;2.57;0.87;;;;;;;12.39;97.27;100590.16;5048433;28;21020;-55
2022/11/05 11:14:21;;;;;;;3.17;0.93;;;;;;;12.60;96.96;100584.13;5048735;28;20450;-55
2022/11/05 11:16:50;;;;;;;1.43;1.33;;;;;;;12.67;96.80;100582.16;5047296;28;21011;-55
2022/11/05 11:19:19;;;;;;;1.27;1.17;;;;;;;12.81;97.17;100582.56;5038363;28;20491;-54
2022/11/05 11:21:45;;;;;;;0.90;0.87;;;;;;;12.51;96.86;100587.09;5036034;28;20451;-55
2022/11/05 11:24:22;;;;;;;0.80;0.80;;;;;;;12.44;96.85;100593.53;5044169;28;20496;-55
2022/11/05 11:26:48;;;;;;;0.90;0.90;;;;;;;12.56;96.52;100585.16;5044898;28;20495;-55
2022/11/05 11:29:24;;;;;;;0.80;0.80;;;;;;;12.45;97.41;100590.81;5041987;28;20517;-57
2022/11/05 11:31:55;;;;;;;0.67;0.67;;;;;;;12.51;95.47;100586.25;5047645;28;20422;-55
2022/11/05 11:34:28;;;;;;;1.53;1.43;;;;;;;12.59;95.70;100589.50;5045280;28;20454;-55
2022/11/05 11:37:06;;;;;;;1.17;0.87;;;;;;;12.54;95.50;100589.66;5049090;28;20441;-55
2022/11/05 11:39:34;;;;;;;6.23;1.47;;;;;;;12.39;96.91;100588.38;5051921;28;20451;-55
2022/11/05 11:42:08;;;;;;;1.20;1.07;;;;;;;12.33;96.83;100585.88;5051930;28;20528;-55
2022/11/05 11:44:41;;;;;;;0.80;0.80;;;;;;;12.58;97.27;100575.31;5047310;28;20501;-55
2022/11/05 11:47:15;;;;;;;1.90;1.33;;;;;;;12.62;97.02;100576.09;5033485;28;20907;-55
2022/11/05 11:49:46;;;;;;;0.70;0.53;;;;;;;12.80;98.36;100585.28;5036584;28;20452;-55
2022/11/05 11:52:15;;;;;;;1.17;0.80;;;;;;;12.87;95.70;100581.47;5039217;28;20447;-55
2022/11/05 11:54:41;;;;;;;1.17;1.10;;;;;;;12.77;97.61;100574.72;5051294;28;20484;-55
2022/11/05 11:57:26;;;;;;;1.13;1.03;;;;;;;12.90;94.43;100570.72;5044373;28;20483;-54
2022/11/05 11:59:54;;;;;;;0.80;0.57;;;;;;;12.97;94.42;100578.47;5039512;28;20447;-54
2022/11/05 12:02:46;;;;;;;8.60;1.23;;;;;;;13.04;94.66;100572.00;5051143;28;20453;-55
2022/11/05 12:05:21;;;;;;;8.03;0.90;;;;;;;12.67;94.86;100574.16;5051262;28;20451;-53
2022/11/05 12:07:56;;;;;;;1.03;0.73;;;;;;;12.99;92.33;100565.06;5049162;28;20544;-54
2022/11/05 12:10:34;;;;;;;11.50;1.03;;;;;;;12.97;93.55;100566.91;5045605;28;20959;-54
2022/11/05 12:13:19;;;;;;;0.60;0.60;;;;;;;13.03;94.44;100562.25;5041922;28;20459;-53
2022/11/05 12:15:50;;;;;;;1.50;0.80;;;;;;;13.20;91.86;100559.03;5036135;28;20490;-54
2022/11/05 12:18:40;;;;;;;13.03;1.17;;;;;;;13.11;92.08;100559.31;5050902;28;20881;-54